Waterville, Vermont
Current Conditions -  °F | °C
As of 9:35 PM on Wednesday 26 Nov 2014 (Local Time) from KFSO Reporting Station
Light Snow Light Snow  
Wind Chill: 20°   Ceiling: 600
Heat Index: 28°   Visibility: 2mi
Dew Point: 27°   Wind: 8mph
Humidity: 95%   Direction: 350°N
Pressure: 30.03"   Gusts: NA
Location:  44.69°N, 72.77°W
Report Text: KFSO 270235Z AUTO 35007KT 2SM -SN OVC006 M02/M03 A3003 RMK AO2 T10201027
Loading
Personal Weather Stations






























Interactive Weather Map New forecast layout! Learn more

10-Day Weather Forecast

Advertisements
Track Severe Weather on mobile